createdAt,value
2019-05-14T00:00:24.390Z,101730.88
2019-05-14T00:02:55.159Z,101739.62
2019-05-14T00:05:25.896Z,101735.77
2019-05-14T00:07:56.325Z,101734.44
2019-05-14T00:10:26.839Z,101738.82
2019-05-14T00:12:57.658Z,101737.86
2019-05-14T00:15:28.242Z,101745.34
2019-05-14T00:18:01.056Z,101734.05
2019-05-14T00:20:31.572Z,101733.61
2019-05-14T00:23:04.952Z,101732.27
2019-05-14T00:25:35.630Z,101734.90
2019-05-14T00:28:06.274Z,101730.15
2019-05-14T00:30:37.178Z,101727.38
2019-05-14T00:33:07.729Z,101719.62
2019-05-14T00:35:38.142Z,101724.36
2019-05-14T00:38:08.752Z,101723.23
2019-05-14T00:40:41.808Z,101715.97
2019-05-14T00:43:11.920Z,101713.34
2019-05-14T00:45:42.434Z,101713.67
2019-05-14T00:48:13.064Z,101715.86
2019-05-14T00:50:43.393Z,101720.08
2019-05-14T00:53:16.296Z,101716.02
2019-05-14T00:55:47.045Z,101711.87
2019-05-14T00:58:17.435Z,101709.73
2019-05-14T01:00:47.874Z,101705.55
2019-05-14T01:03:18.271Z,101694.73
2019-05-14T01:05:52.414Z,101702.00
2019-05-14T01:08:22.898Z,101699.51
2019-05-14T01:10:53.887Z,101699.01
2019-05-14T01:13:24.739Z,101696.88
2019-05-14T01:15:55.053Z,101688.09
2019-05-14T01:18:25.515Z,101691.88
2019-05-14T01:20:55.927Z,101690.84
2019-05-14T01:23:26.374Z,101685.09
2019-05-14T01:25:56.768Z,101692.93
2019-05-14T01:28:27.545Z,101690.56
2019-05-14T01:30:57.967Z,101689.45
2019-05-14T01:33:28.743Z,101694.25
2019-05-14T01:36:01.803Z,101695.30
2019-05-14T01:38:31.714Z,101694.75
2019-05-14T01:41:02.196Z,101699.73
2019-05-14T01:43:32.665Z,101697.74
2019-05-14T01:46:03.084Z,101705.45
2019-05-14T01:48:33.847Z,101711.45
2019-05-14T01:51:06.668Z,101705.89
2019-05-14T01:53:37.078Z,101701.71
2019-05-14T01:56:07.538Z,101702.70
2019-05-14T01:58:38.017Z,101696.84
2019-05-14T02:01:08.754Z,101699.03
2019-05-14T02:03:41.146Z,101698.22
2019-05-14T02:06:12.017Z,101696.11
2019-05-14T02:08:42.613Z,101698.48
2019-05-14T02:11:13.170Z,101696.84
2019-05-14T02:13:43.851Z,101691.58
2019-05-14T02:16:14.421Z,101691.66
2019-05-14T02:18:47.920Z,101692.06
2019-05-14T02:21:18.835Z,101687.48
2019-05-14T02:23:51.403Z,101687.27
2019-05-14T02:26:22.616Z,101688.22
2019-05-14T02:28:54.982Z,101690.73
2019-05-14T02:31:29.044Z,101696.22
2019-05-14T02:33:59.184Z,101688.77
2019-05-14T02:36:36.061Z,101692.48
2019-05-14T02:39:10.200Z,101692.26
2019-05-14T02:41:41.697Z,101687.70
2019-05-14T02:44:12.409Z,101691.54
2019-05-14T02:46:45.680Z,101671.53
2019-05-14T02:49:15.384Z,101678.27
2019-05-14T02:51:45.843Z,101671.36
2019-05-14T02:54:20.088Z,101666.50
2019-05-14T02:57:10.127Z,101663.41
2019-05-14T02:59:39.368Z,101663.84
2019-05-14T03:02:59.898Z,101658.39
2019-05-14T03:05:31.052Z,101660.59
2019-05-14T03:08:01.791Z,101658.55
2019-05-14T03:10:32.746Z,101660.56
2019-05-14T03:13:03.381Z,101658.23
2019-05-14T03:15:33.773Z,101653.75
2019-05-14T03:18:09.056Z,101655.48
2019-05-14T03:20:39.231Z,101657.73
2019-05-14T03:23:18.153Z,101655.05
2019-05-14T03:25:42.425Z,101665.25
2019-05-14T03:28:13.211Z,101654.20
2019-05-14T03:30:43.890Z,101651.47
2019-05-14T03:33:22.152Z,101655.06
2019-05-14T03:35:57.937Z,101655.20
2019-05-14T03:38:21.798Z,101657.94
2019-05-14T03:40:52.246Z,101657.12
2019-05-14T03:43:23.222Z,101649.33
2019-05-14T03:45:53.960Z,101644.72
2019-05-14T03:48:29.529Z,101635.26
2019-05-14T03:51:00.205Z,101644.40
2019-05-14T03:53:31.609Z,101635.26
2019-05-14T03:56:02.336Z,101636.74
2019-05-14T03:58:33.087Z,101636.17
2019-05-14T04:01:05.383Z,101631.00
2019-05-14T04:03:35.875Z,101631.06
2019-05-14T04:06:10.083Z,101631.34
2019-05-14T04:08:42.517Z,101631.34
2019-05-14T04:11:15.749Z,101633.97
2019-05-14T04:13:49.917Z,101630.37
2019-05-14T04:16:23.930Z,101636.50
2019-05-14T04:18:59.204Z,101639.66
2019-05-14T04:21:30.111Z,101638.45
2019-05-14T04:24:02.007Z,101642.19
2019-05-14T04:26:53.147Z,101643.36
2019-05-14T04:29:10.150Z,101645.95
2019-05-14T04:31:43.866Z,101644.70
2019-05-14T04:34:19.261Z,101643.06
2019-05-14T04:36:50.247Z,101646.82
2019-05-14T04:39:21.432Z,101644.71
2019-05-14T04:41:52.299Z,101643.13
2019-05-14T04:44:22.700Z,101644.38
2019-05-14T04:46:53.430Z,101641.17
2019-05-14T04:49:23.832Z,101638.03
2019-05-14T04:51:54.651Z,101636.64
2019-05-14T04:54:25.643Z,101635.78
2019-05-14T04:56:59.659Z,101635.45
2019-05-14T04:59:29.982Z,101636.63
2019-05-14T05:02:01.069Z,101634.19
2019-05-14T05:04:31.581Z,101630.83
2019-05-14T05:07:02.155Z,101635.33
2019-05-14T05:09:32.788Z,101627.09
2019-05-14T05:12:03.237Z,101634.50
2019-05-14T05:14:33.855Z,101631.66
2019-05-14T05:17:04.987Z,101620.64
2019-05-14T05:19:39.075Z,101621.41
2019-05-14T05:22:08.242Z,101621.86
2019-05-14T05:24:39.103Z,101623.43
2019-05-14T05:27:09.629Z,101614.86
2019-05-14T05:29:40.125Z,101617.88
2019-05-14T05:32:10.823Z,101613.08
2019-05-14T05:34:41.319Z,101616.46
2019-05-14T05:37:11.734Z,101620.43
2019-05-14T05:39:42.332Z,101625.71
2019-05-14T05:42:12.731Z,101623.32
2019-05-14T05:44:43.181Z,101625.38
2019-05-14T05:47:13.908Z,101626.70
2019-05-14T05:49:44.400Z,101627.04
2019-05-14T05:52:14.856Z,101622.78
2019-05-14T05:54:45.299Z,101621.71
2019-05-14T05:57:18.570Z,101622.70
2019-05-14T05:59:48.639Z,101611.26
2019-05-14T06:02:19.459Z,101614.66
2019-05-14T06:04:51.758Z,101618.92
2019-05-14T06:07:22.509Z,101606.86
2019-05-14T06:09:52.974Z,101606.67
2019-05-14T06:12:23.398Z,101607.93
2019-05-14T06:14:54.532Z,101599.98
2019-05-14T06:17:25.198Z,101594.86
2019-05-14T06:19:55.655Z,101600.47
2019-05-14T06:22:28.034Z,101602.50
2019-05-14T06:24:58.822Z,101598.98
2019-05-14T06:27:29.805Z,101600.97
2019-05-14T06:30:00.352Z,101593.24
2019-05-14T06:32:30.761Z,101595.54
2019-05-14T06:35:01.231Z,101603.54
2019-05-14T06:37:31.661Z,101601.09
2019-05-14T06:40:02.472Z,101600.62
2019-05-14T06:42:32.949Z,101608.19
2019-05-14T06:45:03.412Z,101615.16
2019-05-14T06:47:33.844Z,101603.37
2019-05-14T06:50:04.320Z,101612.55
2019-05-14T06:52:34.843Z,101608.70
2019-05-14T06:55:05.550Z,101613.23
2019-05-14T06:57:36.020Z,101614.83
2019-05-14T07:00:08.314Z,101622.91
2019-05-14T07:02:43.753Z,101616.37
2019-05-14T07:05:11.108Z,101619.78
2019-05-14T07:07:41.796Z,101612.92
2019-05-14T07:10:12.630Z,101608.59
2019-05-14T07:12:42.999Z,101608.77
2019-05-14T07:15:14.347Z,101613.42
2019-05-14T07:17:45.006Z,101612.63
2019-05-14T07:20:15.469Z,101603.91
2019-05-14T07:22:48.324Z,101609.65
2019-05-14T07:25:18.680Z,101605.59
2019-05-14T07:27:49.147Z,101606.16
2019-05-14T07:30:19.839Z,101598.68
2019-05-14T07:32:50.247Z,101603.44
2019-05-14T07:35:20.792Z,101600.73
2019-05-14T07:37:51.289Z,101605.54
2019-05-14T07:40:21.968Z,101598.98
2019-05-14T07:42:52.402Z,101590.42
2019-05-14T07:45:22.812Z,101581.27
2019-05-14T07:47:53.223Z,101583.26
2019-05-14T07:50:23.784Z,101589.66
2019-05-14T07:52:54.281Z,101584.45
2019-05-14T07:55:24.716Z,101582.26
2019-05-14T07:57:55.358Z,101580.13
2019-05-14T08:00:28.400Z,101584.44
2019-05-14T08:02:58.568Z,101575.78
2019-05-14T08:05:29.030Z,101575.27
2019-05-14T08:08:00.426Z,101572.73
2019-05-14T08:10:30.827Z,101574.88
2019-05-14T08:13:01.313Z,101561.76
2019-05-14T08:15:31.782Z,101557.95
2019-05-14T08:18:02.686Z,101564.90
2019-05-14T08:20:33.208Z,101561.89
2019-05-14T08:23:03.724Z,101557.50
2019-05-14T08:25:34.499Z,101564.89
2019-05-14T08:28:10.414Z,101567.97
2019-05-14T08:30:41.015Z,101557.07
2019-05-14T08:33:11.575Z,101539.72
2019-05-14T08:35:42.104Z,101537.96
2019-05-14T08:38:12.504Z,101546.66
2019-05-14T08:40:42.949Z,101535.78
2019-05-14T08:43:13.413Z,101540.54
2019-05-14T08:45:45.482Z,101535.58
2019-05-14T08:48:18.758Z,101534.40
2019-05-14T08:50:48.944Z,101527.64
2019-05-14T08:53:19.400Z,101525.16
2019-05-14T08:55:49.906Z,101526.39
2019-05-14T08:58:20.561Z,101525.22
2019-05-14T09:00:51.384Z,101514.53
2019-05-14T09:03:21.950Z,101518.23
2019-05-14T09:05:52.399Z,101516.08
2019-05-14T09:08:23.135Z,101509.74
2019-05-14T09:10:53.648Z,101513.83
2019-05-14T09:13:24.451Z,101496.29
2019-05-14T09:15:55.207Z,101495.09
2019-05-14T09:18:25.812Z,101507.60
2019-05-14T09:20:58.225Z,101500.48
2019-05-14T09:23:28.913Z,101508.53
2019-05-14T09:25:59.629Z,101506.10
2019-05-14T09:28:30.432Z,101490.88
2019-05-14T09:31:01.082Z,101498.86
2019-05-14T09:33:31.590Z,101481.82
2019-05-14T09:36:14.948Z,101493.16
2019-05-14T09:38:34.587Z,101488.28
2019-05-14T09:41:12.114Z,101493.38
2019-05-14T09:43:39.297Z,101498.39
2019-05-14T09:46:09.999Z,101490.53
2019-05-14T09:48:40.445Z,101497.55
2019-05-14T09:51:11.001Z,101496.09
2019-05-14T09:53:41.523Z,101493.34
2019-05-14T09:56:12.219Z,101497.27
2019-05-14T09:58:42.717Z,101492.38
2019-05-14T10:01:13.691Z,101487.20
2019-05-14T10:03:44.549Z,101486.91
2019-05-14T10:06:15.112Z,101489.30
2019-05-14T10:08:45.634Z,101485.78
2019-05-14T10:11:16.116Z,101482.84
2019-05-14T10:13:48.380Z,101479.48
2019-05-14T10:16:20.855Z,101473.60
2019-05-14T10:18:52.983Z,101475.86
2019-05-14T10:21:23.723Z,101474.12
2019-05-14T10:23:54.204Z,101472.08
2019-05-14T10:26:24.623Z,101466.17
2019-05-14T10:28:55.545Z,101460.47
2019-05-14T10:31:26.026Z,101461.06
2019-05-14T10:33:58.720Z,101465.31
2019-05-14T10:36:30.030Z,101456.50
2019-05-14T10:39:00.741Z,101457.40
2019-05-14T10:41:31.523Z,101459.63
2019-05-14T10:44:02.390Z,101462.88
2019-05-14T10:46:33.223Z,101466.11
2019-05-14T10:49:16.671Z,101455.44
2019-05-14T10:51:38.721Z,101458.83
2019-05-14T10:54:21.039Z,101459.59
2019-05-14T10:56:41.066Z,101457.34
2019-05-14T10:59:11.657Z,101455.48
2019-05-14T11:01:42.105Z,101449.81
2019-05-14T11:04:12.573Z,101434.34
2019-05-14T11:06:43.227Z,101451.48
2019-05-14T11:09:13.826Z,101438.79
2019-05-14T11:11:44.306Z,101434.09
2019-05-14T11:14:15.040Z,101431.69
2019-05-14T11:16:48.396Z,101426.78
2019-05-14T11:19:18.831Z,101421.28
2019-05-14T11:21:50.143Z,101411.41
2019-05-14T11:24:20.652Z,101416.98
2019-05-14T11:26:51.129Z,101422.46
2019-05-14T11:29:21.642Z,101403.45
2019-05-14T11:31:52.122Z,101409.81
2019-05-14T11:34:22.643Z,101405.70
2019-05-14T11:36:53.171Z,101395.59
2019-05-14T11:39:23.638Z,101400.55
2019-05-14T11:41:54.111Z,101392.41
2019-05-14T11:44:24.909Z,101397.67
2019-05-14T11:46:58.105Z,101390.80
2019-05-14T11:49:27.544Z,101384.06
2019-05-14T11:52:07.243Z,101381.61
2019-05-14T11:54:30.528Z,101384.11
2019-05-14T11:57:00.915Z,101381.77
2019-05-14T11:59:31.440Z,101372.46
2019-05-14T12:02:02.423Z,101375.55
2019-05-14T12:04:32.845Z,101382.31
2019-05-14T12:07:03.504Z,101379.88
2019-05-14T12:09:34.435Z,101370.49
2019-05-14T12:12:05.570Z,101367.79
2019-05-14T12:14:38.051Z,101355.89
2019-05-14T12:17:09.385Z,101350.14
2019-05-14T12:19:43.584Z,101353.95
2019-05-14T12:22:12.912Z,101354.33
2019-05-14T12:24:44.062Z,101356.39
2019-05-14T12:27:18.979Z,101353.44
2019-05-14T12:29:55.075Z,101337.44
2019-05-14T12:32:25.807Z,101325.91
2019-05-14T12:34:56.241Z,101341.23
2019-05-14T12:37:28.856Z,101334.73
2019-05-14T12:39:59.141Z,101334.72
2019-05-14T12:42:29.689Z,101320.98
2019-05-14T12:45:00.180Z,101337.50
2019-05-14T12:47:30.758Z,101335.34
2019-05-14T12:50:01.525Z,101336.77
2019-05-14T12:52:31.930Z,101330.27
2019-05-14T12:55:03.038Z,101310.78
2019-05-14T12:57:34.134Z,101315.09
2019-05-14T13:00:04.799Z,101311.19
2019-05-14T13:02:35.348Z,101302.17
2019-05-14T13:05:08.435Z,101298.31
2019-05-14T13:07:41.555Z,101300.98
2019-05-14T13:10:11.471Z,101296.20
2019-05-14T13:12:41.930Z,101303.09
2019-05-14T13:15:12.810Z,101288.64
2019-05-14T13:17:43.886Z,101300.08
2019-05-14T13:20:14.929Z,101305.20
2019-05-14T13:22:46.521Z,101292.86
2019-05-14T13:25:19.619Z,101278.14
2019-05-14T13:27:50.153Z,101272.52
2019-05-14T13:30:20.859Z,101266.97
2019-05-14T13:32:51.703Z,101275.60
2019-05-14T13:35:22.126Z,101269.75
2019-05-14T13:37:52.837Z,101285.38
2019-05-14T13:40:23.832Z,101276.58
2019-05-14T13:42:54.327Z,101262.98
2019-05-14T13:45:24.806Z,101250.52
2019-05-14T13:47:55.563Z,101254.41
2019-05-14T13:50:29.253Z,101258.89
2019-05-14T13:53:04.157Z,101256.02
2019-05-14T13:55:30.975Z,101246.50
2019-05-14T13:58:01.505Z,101241.94
2019-05-14T14:00:32.322Z,101250.42
2019-05-14T14:03:02.785Z,101246.13
2019-05-14T14:05:33.505Z,101246.09
2019-05-14T14:08:04.248Z,101257.34
2019-05-14T14:10:36.789Z,101247.02
2019-05-14T14:13:11.056Z,101245.50
2019-05-14T14:15:39.640Z,101242.31
2019-05-14T14:18:10.198Z,101247.36
2019-05-14T14:20:40.643Z,101238.59
2019-05-14T14:23:22.124Z,101245.39
2019-05-14T14:25:43.665Z,101237.20
2019-05-14T14:28:14.430Z,101233.97
2019-05-14T14:30:44.828Z,101221.27
2019-05-14T14:33:15.316Z,101213.27
2019-05-14T14:35:48.364Z,101218.94
2019-05-14T14:38:20.083Z,101227.37
2019-05-14T14:40:50.773Z,101213.84
2019-05-14T14:43:21.221Z,101220.03
2019-05-14T14:45:51.772Z,101210.95
2019-05-14T14:48:22.609Z,101220.91
2019-05-14T14:50:53.516Z,101202.75
2019-05-14T14:53:41.530Z,101209.39
2019-05-14T14:55:56.117Z,101196.37
2019-05-14T14:58:28.671Z,101196.59
2019-05-14T15:00:59.744Z,101195.27
2019-05-14T15:03:30.396Z,101205.66
2019-05-14T15:06:00.942Z,101188.27
2019-05-14T15:08:31.512Z,101197.58
2019-05-14T15:11:02.286Z,101180.34
2019-05-14T15:13:32.710Z,101176.24
2019-05-14T15:16:03.194Z,101170.72
2019-05-14T15:18:33.843Z,101170.88
2019-05-14T15:21:04.276Z,101171.11
2019-05-14T15:23:34.734Z,101168.30
2019-05-14T15:26:12.374Z,101167.66
2019-05-14T15:28:42.926Z,101173.31
2019-05-14T15:31:13.684Z,101178.20
2019-05-14T15:33:44.125Z,101178.91
2019-05-14T15:36:14.961Z,101176.36
2019-05-14T15:38:45.432Z,101166.70
2019-05-14T15:41:15.914Z,101167.17
2019-05-14T15:43:46.317Z,101172.17
2019-05-14T15:46:18.574Z,101158.11
2019-05-14T15:48:49.052Z,101157.12
2019-05-14T15:51:20.312Z,101149.39
2019-05-14T15:54:05.433Z,101165.89
2019-05-14T15:56:23.075Z,101155.55
2019-05-14T15:58:53.662Z,101157.66
2019-05-14T16:01:24.740Z,101150.57
2019-05-14T16:04:00.978Z,101152.61
2019-05-14T16:06:31.895Z,101152.84
2019-05-14T16:09:02.903Z,101154.09
2019-05-14T16:11:33.467Z,101141.48
2019-05-14T16:14:04.078Z,101133.34
2019-05-14T16:16:35.221Z,101147.62
2019-05-14T16:19:08.086Z,101137.67
2019-05-14T16:21:38.723Z,101135.78
2019-05-14T16:24:09.523Z,101126.63
2019-05-14T16:26:40.059Z,101138.98
2019-05-14T16:29:10.934Z,101128.87
2019-05-14T16:31:43.706Z,101124.61
2019-05-14T16:34:14.296Z,101130.53
2019-05-14T16:36:44.827Z,101118.91
2019-05-14T16:39:15.559Z,101135.90
2019-05-14T16:41:48.852Z,101126.22
2019-05-14T16:44:19.017Z,101129.13
2019-05-14T16:46:49.763Z,101133.81
2019-05-14T16:49:22.546Z,101127.20
2019-05-14T16:51:53.002Z,101135.08
2019-05-14T16:54:23.509Z,101140.13
2019-05-14T16:56:53.990Z,101139.63
2019-05-14T16:59:24.789Z,101147.89
2019-05-14T17:01:55.278Z,101135.30
2019-05-14T17:04:26.314Z,101136.79
2019-05-14T17:06:58.898Z,101140.84
2019-05-14T17:09:29.525Z,101133.84
2019-05-14T17:11:59.876Z,101138.63
